Terminal Aerodrome Forecast
Issued by NWS

Home | Current Version | Previous Version | Text Only | Print | Product List | Glossary On
Versions: 1 2 3 4 5 6 7 8 9 10 11 12
721
FTUS45 KVEF 252336
TAFBIH
TAF
KBIH 252336Z 2600/2624 34007KT P6SM SKC
     FM261400 VRB05KT P6SM SKC
     FM262000 16010KT P6SM SKC=

USA.gov is the U.S. government's official web portal to all federal, state and local government web resources and services.